createdAt,value
2023-03-13T00:00:11.287Z,82.82
2023-03-13T00:00:43.842Z,82.71
2023-03-13T00:01:16.344Z,82.82
2023-03-13T00:01:48.881Z,82.82
2023-03-13T00:02:21.273Z,82.62
2023-03-13T00:02:53.743Z,82.41
2023-03-13T00:03:26.201Z,82.71
2023-03-13T00:03:58.667Z,82.62
2023-03-13T00:04:31.204Z,82.51
2023-03-13T00:05:03.640Z,82.82
2023-03-13T00:05:36.058Z,82.62
2023-03-13T00:06:08.547Z,83.03
2023-03-13T00:06:41.056Z,82.62
2023-03-13T00:07:13.684Z,82.51
2023-03-13T00:07:46.148Z,82.51
2023-03-13T00:08:18.615Z,82.41
2023-03-13T00:08:51.058Z,82.21
2023-03-13T00:09:23.525Z,82.31
2023-03-13T00:09:55.991Z,82.31
2023-03-13T00:10:28.429Z,82.10
2023-03-13T00:11:00.871Z,82.31
2023-03-13T00:11:33.336Z,82.00
2023-03-13T00:12:05.765Z,82.21
2023-03-13T00:12:38.225Z,82.41
2023-03-13T00:13:10.665Z,82.21
2023-03-13T00:13:43.206Z,82.00
2023-03-13T00:14:15.670Z,82.00
2023-03-13T00:14:48.155Z,82.10
2023-03-13T00:15:20.631Z,82.10
2023-03-13T00:15:53.084Z,82.31
2023-03-13T00:16:25.623Z,82.21
2023-03-13T00:16:58.154Z,82.10
2023-03-13T00:17:30.601Z,82.10
2023-03-13T00:18:03.018Z,82.41
2023-03-13T00:18:35.557Z,82.41
2023-03-13T00:19:08.059Z,82.41
2023-03-13T00:19:40.535Z,82.62
2023-03-13T00:20:12.993Z,82.41
2023-03-13T00:20:45.445Z,82.62
2023-03-13T00:21:17.959Z,82.82
2023-03-13T00:21:50.401Z,82.71
2023-03-13T00:22:22.838Z,82.62
2023-03-13T00:22:55.313Z,82.51
2023-03-13T00:23:27.806Z,82.41
2023-03-13T00:24:00.237Z,82.31
2023-03-13T00:24:32.722Z,82.31
2023-03-13T00:25:05.218Z,82.21
2023-03-13T00:25:37.659Z,82.21
2023-03-13T00:26:10.141Z,82.00
2023-03-13T00:26:42.551Z,82.21
2023-03-13T00:27:15.000Z,82.41
2023-03-13T00:27:47.479Z,82.10
2023-03-13T00:28:20.025Z,82.21
2023-03-13T00:28:52.496Z,82.21
2023-03-13T00:29:24.946Z,82.51
2023-03-13T00:29:57.447Z,82.51
2023-03-13T00:30:29.995Z,82.62
2023-03-13T00:31:02.465Z,82.41
2023-03-13T00:31:34.951Z,82.82
2023-03-13T00:32:07.423Z,82.92
2023-03-13T00:32:39.913Z,82.71
2023-03-13T00:33:12.319Z,82.82
2023-03-13T00:33:44.748Z,82.51
2023-03-13T00:34:17.205Z,82.62
2023-03-13T00:34:49.683Z,83.03
2023-03-13T00:35:22.184Z,82.92
2023-03-13T00:35:54.660Z,83.03
2023-03-13T00:36:27.146Z,83.03
2023-03-13T00:36:59.609Z,83.03
2023-03-13T00:37:32.098Z,82.92
2023-03-13T00:38:04.587Z,83.03
2023-03-13T00:38:37.072Z,83.03
2023-03-13T00:39:09.616Z,82.92
2023-03-13T00:39:42.090Z,83.13
2023-03-13T00:40:14.653Z,82.92
2023-03-13T00:40:47.087Z,82.82
2023-03-13T00:41:19.579Z,83.13
2023-03-13T00:41:52.042Z,83.03
2023-03-13T00:42:24.530Z,82.62
2023-03-13T00:42:56.981Z,82.62
2023-03-13T00:43:29.417Z,82.71
2023-03-13T00:44:01.886Z,82.71
2023-03-13T00:44:34.411Z,82.92
2023-03-13T00:45:06.890Z,82.92
2023-03-13T00:45:39.335Z,83.03
2023-03-13T00:46:11.843Z,83.23
2023-03-13T00:46:44.220Z,83.64
2023-03-13T00:47:16.677Z,84.25
2023-03-13T00:47:49.208Z,84.05
2023-03-13T00:48:21.692Z,84.46
2023-03-13T00:48:54.163Z,84.87
2023-03-13T00:49:26.599Z,85.28
2023-03-13T00:49:59.036Z,85.58
2023-03-13T00:50:31.523Z,86.10
2023-03-13T00:51:03.994Z,86.20
2023-03-13T00:51:36.484Z,86.40
2023-03-13T00:52:08.904Z,86.51
2023-03-13T00:52:41.338Z,86.81
2023-03-13T00:53:13.823Z,86.85
2023-03-13T00:53:46.263Z,87.57
2023-03-13T00:54:18.761Z,87.26
2023-03-13T00:54:51.245Z,87.16
2023-03-13T00:55:23.714Z,87.57
2023-03-13T00:55:56.153Z,87.37
2023-03-13T00:56:28.615Z,88.18
2023-03-13T00:57:01.064Z,88.18
2023-03-13T00:57:33.527Z,88.39
2023-03-13T00:58:06.040Z,88.80
2023-03-13T00:58:38.556Z,88.29
2023-03-13T00:59:10.996Z,88.70
2023-03-13T00:59:43.450Z,88.80
2023-03-13T01:00:15.914Z,88.70
2023-03-13T01:00:48.371Z,89.42
2023-03-13T01:01:20.886Z,89.66
2023-03-13T01:01:53.356Z,89.45
2023-03-13T01:02:25.972Z,90.07
2023-03-13T01:02:58.390Z,90.07
2023-03-13T01:03:30.769Z,89.97
2023-03-13T01:04:03.180Z,89.56
2023-03-13T01:04:35.625Z,90.07
2023-03-13T01:05:08.067Z,90.79
2023-03-13T01:05:40.552Z,91.20
2023-03-13T01:06:13.060Z,90.99
2023-03-13T01:06:45.509Z,90.58
2023-03-13T01:07:17.955Z,90.89
2023-03-13T01:07:50.456Z,90.99
2023-03-13T01:08:22.963Z,91.09
2023-03-13T01:08:55.424Z,91.09
2023-03-13T01:09:27.879Z,91.30
2023-03-13T01:10:00.367Z,91.40
2023-03-13T01:10:32.862Z,90.99
2023-03-13T01:11:05.322Z,91.40
2023-03-13T01:11:37.781Z,91.09
2023-03-13T01:12:10.232Z,91.09
2023-03-13T01:12:42.665Z,91.40
2023-03-13T01:13:15.101Z,91.40
2023-03-13T01:13:47.567Z,91.30
2023-03-13T01:14:20.011Z,91.30
2023-03-13T01:14:52.449Z,91.71
2023-03-13T01:15:24.933Z,91.61
2023-03-13T01:15:57.461Z,91.96
2023-03-13T01:16:29.853Z,92.47
2023-03-13T01:17:02.324Z,92.27
2023-03-13T01:17:34.746Z,91.86
2023-03-13T01:18:07.174Z,92.36
2023-03-13T01:18:39.658Z,92.27
2023-03-13T01:19:13.241Z,92.36
2023-03-13T01:19:44.663Z,92.57
2023-03-13T01:20:17.113Z,92.78
2023-03-13T01:20:49.539Z,93.08
2023-03-13T01:21:22.023Z,93.19
2023-03-13T01:21:54.486Z,93.39
2023-03-13T01:22:26.963Z,93.49
2023-03-13T01:22:59.411Z,93.29
2023-03-13T01:23:31.894Z,93.60
2023-03-13T01:24:04.336Z,93.90
2023-03-13T01:24:36.816Z,93.49
2023-03-13T01:25:09.269Z,93.90
2023-03-13T01:25:41.730Z,94.42
2023-03-13T01:26:14.166Z,94.01
2023-03-13T01:26:46.648Z,93.90
2023-03-13T01:27:19.183Z,94.32
2023-03-13T01:27:51.752Z,94.01
2023-03-13T01:28:24.251Z,93.70
2023-03-13T01:28:56.713Z,94.11
2023-03-13T01:29:29.153Z,94.32
2023-03-13T01:30:01.675Z,94.42
2023-03-13T01:30:34.153Z,94.01
2023-03-13T01:31:06.785Z,94.32
2023-03-13T01:31:39.257Z,94.32
2023-03-13T01:32:11.659Z,94.21
2023-03-13T01:32:44.232Z,94.52
2023-03-13T01:33:16.693Z,94.52
2023-03-13T01:33:49.178Z,94.52
2023-03-13T01:34:21.657Z,94.52
2023-03-13T01:34:54.156Z,94.42
2023-03-13T01:35:26.658Z,94.73
2023-03-13T01:35:59.091Z,94.93
2023-03-13T01:36:31.580Z,94.62
2023-03-13T01:37:03.991Z,94.83
2023-03-13T01:37:36.454Z,95.24
2023-03-13T01:38:08.920Z,95.54
2023-03-13T01:38:41.402Z,95.44
2023-03-13T01:39:13.877Z,95.44
2023-03-13T01:39:46.345Z,95.49
2023-03-13T01:40:18.826Z,95.59
2023-03-13T01:40:51.273Z,95.79
2023-03-13T01:41:23.738Z,95.79
2023-03-13T01:41:56.178Z,95.59
2023-03-13T01:42:28.643Z,95.59
2023-03-13T01:43:01.153Z,95.59
2023-03-13T01:43:33.621Z,95.75
2023-03-13T01:44:06.091Z,96.00
2023-03-13T01:44:38.531Z,95.95
2023-03-13T01:45:11.947Z,95.86
2023-03-13T01:45:44.411Z,96.00
2023-03-13T01:46:16.881Z,96.16
2023-03-13T01:46:49.508Z,95.90
2023-03-13T01:47:21.778Z,96.16
2023-03-13T01:47:54.270Z,96.16
2023-03-13T01:48:26.769Z,95.95
2023-03-13T01:48:59.222Z,96.16
2023-03-13T01:49:31.704Z,96.16
2023-03-13T01:50:04.158Z,96.37
2023-03-13T01:50:36.658Z,96.57
2023-03-13T01:51:09.170Z,96.78
2023-03-13T01:51:41.660Z,96.67
2023-03-13T01:52:14.221Z,97.13
2023-03-13T01:52:46.653Z,97.13
2023-03-13T01:53:19.080Z,97.33
2023-03-13T01:53:51.584Z,97.44
2023-03-13T01:54:24.091Z,97.44
2023-03-13T01:54:56.549Z,97.54
2023-03-13T01:55:29.039Z,97.33
2023-03-13T01:56:01.532Z,97.33
2023-03-13T01:56:34.048Z,97.54
2023-03-13T01:57:06.549Z,97.64
2023-03-13T01:57:39.041Z,97.85
2023-03-13T01:58:11.533Z,97.85
2023-03-13T01:58:44.020Z,97.95
2023-03-13T01:59:16.534Z,98.05
2023-03-13T01:59:49.045Z,98.16
2023-03-13T02:00:21.504Z,98.16
2023-03-13T02:00:54.002Z,98.16
2023-03-13T02:01:26.630Z,98.36
2023-03-13T02:01:59.123Z,98.57
2023-03-13T02:02:31.582Z,98.67
2023-03-13T02:03:03.986Z,98.82
2023-03-13T02:03:36.435Z,99.02
2023-03-13T02:04:08.964Z,98.92
2023-03-13T02:04:41.418Z,98.92
2023-03-13T02:05:13.848Z,99.02
2023-03-13T02:05:46.337Z,98.82
2023-03-13T02:06:18.797Z,98.61
2023-03-13T02:06:51.273Z,98.71
2023-03-13T02:07:23.757Z,98.97
2023-03-13T02:07:56.234Z,99.08
2023-03-13T02:08:28.947Z,98.97
2023-03-13T02:09:01.409Z,99.02
2023-03-13T02:09:34.588Z,99.12
2023-03-13T02:10:07.148Z,99.22
2023-03-13T02:10:39.709Z,99.33
2023-03-13T02:11:12.301Z,99.22
2023-03-13T02:11:44.919Z,99.12
2023-03-13T02:12:17.553Z,99.22
2023-03-13T02:12:50.077Z,99.33
2023-03-13T02:13:22.564Z,99.33
2023-03-13T02:13:55.068Z,99.12
2023-03-13T02:14:27.687Z,99.33
2023-03-13T02:15:01.078Z,99.22
2023-03-13T02:15:33.561Z,99.12
2023-03-13T02:16:06.186Z,99.02
2023-03-13T02:16:38.601Z,99.12
2023-03-13T02:17:11.522Z,99.18
2023-03-13T02:17:43.996Z,99.28
2023-03-13T02:18:16.406Z,99.38
2023-03-13T02:18:48.863Z,99.38
2023-03-13T02:19:21.346Z,99.63
2023-03-13T02:19:53.853Z,99.69
2023-03-13T02:20:26.366Z,99.95
2023-03-13T02:20:58.812Z,99.99
2023-03-13T02:21:31.304Z,99.99
2023-03-13T02:22:03.716Z,99.99
2023-03-13T02:22:36.189Z,99.99
2023-03-13T02:23:08.624Z,99.99
2023-03-13T02:23:41.077Z,99.99
2023-03-13T02:24:13.521Z,99.99
2023-03-13T02:24:45.992Z,99.99
2023-03-13T02:25:18.415Z,99.99
2023-03-13T02:25:50.877Z,99.99
2023-03-13T02:26:23.307Z,99.99
2023-03-13T02:26:55.862Z,99.99
2023-03-13T02:27:28.293Z,99.99
2023-03-13T02:28:00.732Z,99.99
2023-03-13T02:28:33.274Z,99.99
2023-03-13T02:29:05.657Z,99.99
2023-03-13T02:29:38.147Z,99.99
2023-03-13T02:30:10.614Z,99.99
2023-03-13T02:30:43.117Z,99.99
2023-03-13T02:31:15.633Z,99.99
2023-03-13T02:31:48.150Z,99.99
2023-03-13T02:32:20.557Z,99.99
2023-03-13T02:32:53.147Z,99.99
2023-03-13T02:33:25.530Z,99.99
2023-03-13T02:33:58.037Z,99.99
2023-03-13T02:34:30.485Z,99.99
2023-03-13T02:35:02.978Z,99.99
2023-03-13T02:35:35.473Z,99.99
2023-03-13T02:36:07.881Z,99.99
2023-03-13T02:36:40.384Z,99.99
2023-03-13T02:37:12.852Z,99.99
2023-03-13T02:37:45.305Z,99.99
2023-03-13T02:38:17.773Z,99.99
2023-03-13T02:38:50.214Z,99.99
2023-03-13T02:39:22.709Z,99.99
2023-03-13T02:39:55.227Z,99.99
2023-03-13T02:40:27.677Z,99.99
2023-03-13T02:41:00.136Z,99.99
2023-03-13T02:41:32.607Z,99.99
2023-03-13T02:42:05.094Z,99.99
2023-03-13T02:42:37.540Z,99.99
2023-03-13T02:43:10.010Z,99.99
2023-03-13T02:43:42.431Z,99.99
2023-03-13T02:44:14.920Z,99.99
2023-03-13T02:44:47.401Z,99.99
2023-03-13T02:45:19.905Z,99.99
2023-03-13T02:45:52.371Z,99.99
2023-03-13T02:46:24.870Z,99.99
2023-03-13T02:46:57.385Z,99.99
2023-03-13T02:47:29.809Z,99.99
2023-03-13T02:48:02.291Z,99.99
2023-03-13T02:48:34.733Z,99.99
2023-03-13T02:49:07.179Z,99.99
2023-03-13T02:49:39.928Z,99.99
2023-03-13T02:50:12.396Z,99.99
2023-03-13T02:50:44.869Z,99.99
2023-03-13T02:51:17.370Z,99.99
2023-03-13T02:51:49.882Z,99.99
2023-03-13T02:52:22.309Z,99.99
2023-03-13T02:52:54.764Z,99.99
2023-03-13T02:53:27.199Z,99.99
2023-03-13T02:53:59.669Z,99.99
2023-03-13T02:54:32.139Z,99.99
2023-03-13T02:55:04.604Z,99.99
2023-03-13T02:55:37.103Z,99.99
2023-03-13T02:56:09.578Z,99.99
2023-03-13T02:56:42.088Z,99.99
2023-03-13T02:57:14.734Z,99.99
2023-03-13T02:57:47.170Z,99.99
2023-03-13T02:58:19.608Z,99.99
2023-03-13T02:58:52.053Z,99.99
2023-03-13T02:59:24.498Z,99.99
2023-03-13T02:59:56.974Z,99.99
2023-03-13T03:00:29.457Z,99.99
2023-03-13T03:01:01.966Z,99.99
2023-03-13T03:01:34.350Z,99.99
2023-03-13T03:02:06.826Z,99.99
2023-03-13T03:02:39.259Z,99.99
2023-03-13T03:03:11.740Z,99.99
2023-03-13T03:03:44.294Z,99.99
2023-03-13T03:04:16.712Z,99.99
2023-03-13T03:04:49.132Z,99.99
2023-03-13T03:05:21.606Z,99.99
2023-03-13T03:05:54.067Z,99.99
2023-03-13T03:06:26.585Z,99.99
2023-03-13T03:06:59.045Z,99.99
2023-03-13T03:07:31.585Z,99.99
2023-03-13T03:08:04.156Z,99.99
2023-03-13T03:08:36.567Z,99.99
2023-03-13T03:09:09.109Z,99.99
2023-03-13T03:09:41.608Z,99.99
2023-03-13T03:10:14.210Z,99.99
2023-03-13T03:10:46.796Z,99.99
2023-03-13T03:11:19.357Z,99.99
2023-03-13T03:11:51.817Z,99.99
2023-03-13T03:12:24.290Z,99.99
2023-03-13T03:12:56.760Z,99.99
2023-03-13T03:13:29.266Z,99.99
2023-03-13T03:14:01.764Z,99.99
2023-03-13T03:14:34.361Z,99.99
2023-03-13T03:15:06.849Z,99.99
2023-03-13T03:15:39.314Z,99.99
2023-03-13T03:16:11.831Z,99.99
2023-03-13T03:16:44.291Z,99.99
2023-03-13T03:17:16.702Z,99.99
2023-03-13T03:17:49.173Z,99.99
2023-03-13T03:18:21.667Z,99.99
2023-03-13T03:18:54.115Z,99.99
2023-03-13T03:19:26.572Z,99.99
2023-03-13T03:19:59.103Z,99.99
2023-03-13T03:20:31.797Z,99.99
2023-03-13T03:21:05.023Z,99.99
2023-03-13T03:21:37.580Z,99.99
2023-03-13T03:22:11.815Z,99.99
2023-03-13T03:22:44.322Z,99.99
2023-03-13T03:23:16.853Z,99.99
2023-03-13T03:23:49.329Z,99.99
2023-03-13T03:24:21.893Z,99.99
2023-03-13T03:24:54.373Z,99.99
2023-03-13T03:25:27.187Z,99.99
2023-03-13T03:25:59.631Z,99.99
2023-03-13T03:26:32.095Z,99.99
2023-03-13T03:27:04.583Z,99.99
2023-03-13T03:27:37.020Z,99.99
2023-03-13T03:28:09.452Z,99.99
2023-03-13T03:28:41.917Z,99.99
2023-03-13T03:29:14.349Z,99.99
2023-03-13T03:29:46.821Z,99.99
2023-03-13T03:30:19.348Z,99.99
2023-03-13T03:30:51.800Z,99.99
2023-03-13T03:31:24.275Z,99.99
2023-03-13T03:31:56.757Z,99.99
2023-03-13T03:32:29.221Z,99.99
2023-03-13T03:33:01.747Z,99.99
2023-03-13T03:33:34.212Z,99.99
2023-03-13T03:34:06.844Z,99.99
2023-03-13T03:34:39.328Z,99.99
2023-03-13T03:35:11.771Z,99.99
2023-03-13T03:35:44.230Z,99.99
2023-03-13T03:36:16.666Z,99.99
2023-03-13T03:36:49.447Z,99.99
2023-03-13T03:37:21.894Z,99.99
2023-03-13T03:37:54.363Z,99.99
2023-03-13T03:38:26.807Z,99.99
2023-03-13T03:38:59.343Z,99.99
2023-03-13T03:39:31.850Z,99.99
2023-03-13T03:40:04.322Z,99.99
2023-03-13T03:40:36.832Z,99.99
2023-03-13T03:41:09.360Z,99.99
2023-03-13T03:41:43.933Z,99.99
2023-03-13T03:42:17.120Z,99.99
2023-03-13T03:42:50.741Z,99.99
2023-03-13T03:43:23.232Z,99.99
2023-03-13T03:43:55.721Z,99.99
2023-03-13T03:44:28.199Z,99.99
2023-03-13T03:45:00.715Z,99.99
2023-03-13T03:45:34.163Z,99.99
2023-03-13T03:46:07.453Z,99.99
2023-03-13T03:46:40.128Z,99.99
2023-03-13T03:47:14.128Z,99.99
2023-03-13T03:47:47.177Z,99.99
2023-03-13T03:48:19.924Z,99.99
2023-03-13T03:48:52.471Z,99.99
2023-03-13T03:49:24.964Z,99.99
2023-03-13T03:49:57.454Z,99.99
2023-03-13T03:50:29.952Z,99.99
2023-03-13T03:51:02.408Z,99.99
2023-03-13T03:51:34.879Z,99.99
2023-03-13T03:52:07.310Z,99.99
2023-03-13T03:52:39.738Z,99.99
2023-03-13T03:53:12.201Z,99.99
2023-03-13T03:53:44.647Z,99.99
2023-03-13T03:54:17.157Z,99.99
2023-03-13T03:54:49.571Z,99.99
2023-03-13T03:55:22.037Z,99.99
2023-03-13T03:55:54.469Z,99.99
2023-03-13T03:56:26.883Z,99.99
2023-03-13T03:56:59.316Z,99.99
2023-03-13T03:57:31.754Z,99.99
2023-03-13T03:58:04.242Z,99.99
2023-03-13T03:58:36.655Z,99.99
2023-03-13T03:59:09.189Z,99.99
2023-03-13T03:59:41.659Z,99.99
2023-03-13T04:00:14.150Z,99.99
2023-03-13T04:00:46.594Z,99.99
2023-03-13T04:01:19.059Z,99.99
2023-03-13T04:01:51.580Z,99.99
2023-03-13T04:02:24.036Z,99.99
2023-03-13T04:02:56.506Z,99.99
2023-03-13T04:03:28.961Z,99.99
2023-03-13T04:04:20.761Z,99.99
2023-03-13T04:04:53.247Z,99.99
2023-03-13T04:05:25.746Z,99.99
2023-03-13T04:05:58.212Z,99.99
2023-03-13T04:06:30.677Z,99.99
2023-03-13T04:07:03.167Z,99.99
2023-03-13T04:07:35.614Z,99.99
2023-03-13T04:08:08.072Z,99.99
2023-03-13T04:08:40.567Z,99.99
2023-03-13T04:09:13.012Z,99.99
2023-03-13T04:09:45.430Z,99.99
2023-03-13T04:10:17.939Z,99.99
2023-03-13T04:10:50.416Z,99.99
2023-03-13T04:11:22.850Z,99.99
2023-03-13T04:11:55.290Z,99.99
2023-03-13T04:12:27.768Z,99.99
2023-03-13T04:13:00.203Z,99.99
2023-03-13T04:13:32.744Z,99.99
2023-03-13T04:14:05.185Z,99.99
2023-03-13T04:14:37.730Z,99.99
2023-03-13T04:15:10.188Z,99.99
2023-03-13T04:15:42.658Z,99.99
2023-03-13T04:16:15.157Z,99.99
2023-03-13T04:16:47.658Z,99.99
2023-03-13T04:17:20.081Z,99.99
2023-03-13T04:17:52.595Z,99.99
2023-03-13T04:18:25.048Z,99.99
2023-03-13T04:18:57.640Z,99.99
2023-03-13T04:19:30.097Z,99.99
2023-03-13T04:20:02.601Z,99.99
2023-03-13T04:20:35.102Z,99.99
2023-03-13T04:21:07.599Z,99.99
2023-03-13T04:21:40.060Z,99.99
2023-03-13T04:22:12.546Z,99.99
2023-03-13T04:22:45.016Z,99.99
2023-03-13T04:23:17.523Z,99.99
2023-03-13T04:23:49.963Z,99.99
2023-03-13T04:24:22.416Z,99.99
2023-03-13T04:24:54.857Z,99.99
2023-03-13T04:25:27.339Z,99.99
2023-03-13T04:25:59.818Z,99.99
2023-03-13T04:26:32.259Z,99.99
2023-03-13T04:27:04.713Z,99.99
2023-03-13T04:27:37.213Z,99.99
2023-03-13T04:28:09.693Z,99.99
2023-03-13T04:28:42.135Z,99.99
2023-03-13T04:29:14.570Z,99.99
2023-03-13T04:29:47.024Z,99.99
2023-03-13T04:30:19.483Z,99.99
2023-03-13T04:30:52.035Z,99.99
2023-03-13T04:31:24.445Z,99.99
2023-03-13T04:31:56.917Z,99.99
2023-03-13T04:32:29.437Z,99.99
2023-03-13T04:33:01.861Z,99.99
2023-03-13T04:33:34.269Z,99.99
2023-03-13T04:34:06.778Z,99.99
2023-03-13T04:34:39.227Z,99.99
2023-03-13T04:35:11.742Z,99.99
2023-03-13T04:35:44.301Z,99.99
2023-03-13T04:36:16.810Z,99.99
2023-03-13T04:36:49.137Z,99.99
2023-03-13T04:37:21.642Z,99.99
2023-03-13T04:37:54.093Z,99.99
2023-03-13T04:38:26.567Z,99.99
2023-03-13T04:38:59.126Z,99.99
2023-03-13T04:39:33.045Z,99.99
2023-03-13T04:40:04.157Z,99.99
2023-03-13T04:40:36.585Z,99.99
2023-03-13T04:41:09.074Z,99.99
2023-03-13T04:41:41.543Z,99.99
2023-03-13T04:42:14.006Z,99.99
2023-03-13T04:42:46.464Z,99.99
2023-03-13T04:43:18.959Z,99.99
2023-03-13T04:43:51.405Z,99.99
2023-03-13T04:44:23.868Z,99.99
2023-03-13T04:44:56.358Z,99.99
2023-03-13T04:45:28.808Z,99.99
2023-03-13T04:46:01.402Z,99.99
2023-03-13T04:46:33.908Z,99.99
2023-03-13T04:47:06.370Z,99.99
2023-03-13T04:47:38.863Z,99.99
2023-03-13T04:48:11.328Z,99.99
2023-03-13T04:48:43.776Z,99.99
2023-03-13T04:49:16.205Z,99.99
2023-03-13T04:49:48.720Z,99.99
2023-03-13T04:50:21.174Z,99.99
2023-03-13T04:50:53.628Z,99.99
2023-03-13T04:51:26.137Z,99.99
2023-03-13T04:51:58.627Z,99.99
2023-03-13T04:52:31.072Z,99.99
2023-03-13T04:53:03.530Z,99.99
2023-03-13T04:53:36.038Z,99.99
2023-03-13T04:54:08.445Z,99.99
2023-03-13T04:54:40.878Z,99.99
2023-03-13T04:55:13.309Z,99.99
2023-03-13T04:55:45.789Z,99.99
2023-03-13T04:56:18.236Z,99.99
2023-03-13T04:56:50.691Z,99.99
2023-03-13T04:57:23.143Z,99.99
2023-03-13T04:57:55.562Z,99.99
2023-03-13T04:58:28.022Z,99.99
2023-03-13T04:59:00.470Z,99.99
2023-03-13T04:59:32.976Z,99.99
2023-03-13T05:00:05.468Z,99.99
2023-03-13T05:00:37.941Z,99.99
2023-03-13T05:01:10.548Z,99.99
2023-03-13T05:01:42.968Z,99.99
2023-03-13T05:02:15.444Z,99.99
2023-03-13T05:02:47.941Z,99.99
2023-03-13T05:03:20.412Z,99.99
2023-03-13T05:03:52.852Z,99.99
2023-03-13T05:04:25.345Z,99.99
2023-03-13T05:04:57.850Z,99.99
2023-03-13T05:05:30.381Z,99.99
2023-03-13T05:06:02.692Z,99.99
2023-03-13T05:06:35.175Z,99.99
2023-03-13T05:07:07.657Z,99.99
2023-03-13T05:07:40.128Z,99.99
2023-03-13T05:08:12.588Z,99.99
2023-03-13T05:08:45.031Z,99.99
2023-03-13T05:09:17.502Z,99.99
2023-03-13T05:09:49.919Z,99.99
2023-03-13T05:10:22.358Z,99.99
2023-03-13T05:10:54.815Z,99.99
2023-03-13T05:11:27.254Z,99.99
2023-03-13T05:11:59.829Z,99.99
2023-03-13T05:12:32.290Z,99.99
2023-03-13T05:13:04.770Z,99.99
2023-03-13T05:13:37.246Z,99.99
2023-03-13T05:14:09.727Z,99.99
2023-03-13T05:14:42.180Z,99.99
2023-03-13T05:15:14.623Z,99.99
2023-03-13T05:15:54.354Z,99.99
2023-03-13T05:16:26.787Z,99.99
2023-03-13T05:16:59.161Z,99.99
2023-03-13T05:17:31.608Z,99.99
2023-03-13T05:18:04.092Z,99.99
2023-03-13T05:18:36.547Z,99.99
2023-03-13T05:19:09.025Z,99.99
2023-03-13T05:19:41.590Z,99.99
2023-03-13T05:20:14.054Z,99.99
2023-03-13T05:20:46.482Z,99.99
2023-03-13T05:21:18.913Z,99.99
2023-03-13T05:21:51.373Z,99.99
2023-03-13T05:22:23.835Z,99.99
2023-03-13T05:22:56.292Z,99.99
2023-03-13T05:23:28.755Z,99.99
2023-03-13T05:24:01.270Z,99.99
2023-03-13T05:24:33.711Z,99.99
2023-03-13T05:25:06.189Z,99.99
2023-03-13T05:25:38.649Z,99.99
2023-03-13T05:26:11.132Z,99.99
2023-03-13T05:26:43.599Z,99.99
2023-03-13T05:27:16.090Z,99.99
2023-03-13T05:27:48.546Z,99.99
2023-03-13T05:28:20.969Z,99.99
2023-03-13T05:28:53.441Z,99.99
2023-03-13T05:29:25.893Z,99.99
2023-03-13T05:29:58.342Z,99.99
2023-03-13T05:30:30.798Z,99.99
2023-03-13T05:31:03.352Z,99.99
2023-03-13T05:31:35.733Z,99.99
2023-03-13T05:32:08.301Z,99.99
2023-03-13T05:32:40.865Z,99.99
2023-03-13T05:33:13.300Z,99.99
2023-03-13T05:33:45.794Z,99.99
2023-03-13T05:34:18.297Z,99.99
2023-03-13T05:34:50.786Z,99.99
2023-03-13T05:35:23.279Z,99.99
2023-03-13T05:35:55.755Z,99.99
2023-03-13T05:36:28.686Z,99.99
2023-03-13T05:37:01.160Z,99.99
2023-03-13T05:37:33.643Z,99.99
2023-03-13T05:38:06.114Z,99.99
2023-03-13T05:38:38.638Z,99.99
2023-03-13T05:39:11.116Z,99.99
2023-03-13T05:39:43.602Z,99.99
2023-03-13T05:40:16.123Z,99.99
2023-03-13T05:40:48.602Z,99.99
2023-03-13T05:41:21.116Z,99.99
2023-03-13T05:41:53.621Z,99.99
2023-03-13T05:42:26.075Z,99.99
2023-03-13T05:42:58.559Z,99.99
2023-03-13T05:43:31.043Z,99.99
2023-03-13T05:44:03.493Z,99.99
2023-03-13T05:44:36.072Z,99.99
2023-03-13T05:45:08.603Z,99.99
2023-03-13T05:45:41.116Z,99.99
2023-03-13T05:46:13.681Z,99.99
2023-03-13T05:46:46.189Z,99.99
2023-03-13T05:47:18.591Z,99.99
2023-03-13T05:47:51.019Z,99.99
2023-03-13T05:48:23.472Z,99.99
2023-03-13T05:48:55.916Z,99.99
2023-03-13T05:49:28.381Z,99.99
2023-03-13T05:50:00.859Z,99.99
2023-03-13T05:50:33.324Z,99.99
2023-03-13T05:51:05.835Z,99.99
2023-03-13T05:51:38.289Z,99.99
2023-03-13T05:52:10.774Z,99.99
2023-03-13T05:52:43.287Z,99.99
2023-03-13T05:53:15.732Z,99.99
2023-03-13T05:53:48.186Z,99.99
2023-03-13T05:54:20.642Z,99.99
2023-03-13T05:54:53.140Z,99.99
2023-03-13T05:55:25.590Z,99.99
2023-03-13T05:55:58.068Z,99.99
2023-03-13T05:56:30.571Z,99.99
2023-03-13T05:57:03.054Z,99.99
2023-03-13T05:57:35.533Z,99.99
2023-03-13T05:58:08.003Z,99.99
2023-03-13T05:58:40.430Z,99.99
2023-03-13T05:59:12.901Z,99.99
2023-03-13T05:59:45.384Z,99.99
2023-03-13T06:00:17.851Z,99.99
2023-03-13T06:00:50.362Z,99.99
2023-03-13T06:01:22.826Z,99.99
2023-03-13T06:01:55.261Z,99.99
2023-03-13T06:02:27.714Z,99.99
2023-03-13T06:03:00.158Z,99.99
2023-03-13T06:03:32.662Z,99.99
2023-03-13T06:04:05.150Z,99.99
2023-03-13T06:04:37.703Z,99.99
2023-03-13T06:05:10.081Z,99.99
2023-03-13T06:05:42.472Z,99.99
2023-03-13T06:06:14.948Z,99.99
2023-03-13T06:06:47.426Z,99.99
2023-03-13T06:07:19.901Z,99.99
2023-03-13T06:07:52.371Z,99.99
2023-03-13T06:08:24.808Z,99.99
2023-03-13T06:08:57.229Z,99.99
2023-03-13T06:09:29.737Z,99.99
2023-03-13T06:10:02.167Z,99.99
2023-03-13T06:10:34.707Z,99.99
2023-03-13T06:11:07.167Z,99.99
2023-03-13T06:11:39.693Z,99.99
2023-03-13T06:12:12.148Z,99.99
2023-03-13T06:12:44.613Z,99.99
2023-03-13T06:13:20.139Z,99.99
2023-03-13T06:13:49.503Z,99.99
2023-03-13T06:14:21.960Z,99.99
2023-03-13T06:14:54.434Z,99.99
2023-03-13T06:15:26.917Z,99.99
2023-03-13T06:15:59.441Z,99.99
2023-03-13T06:16:32.012Z,99.99
2023-03-13T06:17:04.393Z,99.99
2023-03-13T06:17:36.907Z,99.99
2023-03-13T06:18:09.371Z,99.99
2023-03-13T06:18:41.836Z,99.99
2023-03-13T06:19:14.330Z,99.99
2023-03-13T06:19:46.772Z,99.99
2023-03-13T06:20:19.223Z,99.99
2023-03-13T06:20:51.657Z,99.99
2023-03-13T06:21:24.148Z,99.99
2023-03-13T06:21:56.630Z,99.99
2023-03-13T06:22:29.098Z,99.99
2023-03-13T06:23:01.550Z,99.99
2023-03-13T06:23:34.046Z,99.99
2023-03-13T06:24:06.541Z,99.99
2023-03-13T06:24:39.004Z,99.99
2023-03-13T06:25:11.478Z,99.99
2023-03-13T06:25:44.035Z,99.99
2023-03-13T06:26:16.523Z,99.99
2023-03-13T06:26:49.658Z,99.99
2023-03-13T06:27:21.472Z,99.99
2023-03-13T06:27:53.947Z,99.99
2023-03-13T06:28:26.556Z,99.99
2023-03-13T06:28:59.030Z,99.99
2023-03-13T06:29:31.513Z,99.99
2023-03-13T06:30:04.001Z,99.99
2023-03-13T06:30:36.564Z,99.99
2023-03-13T06:31:09.043Z,99.99
2023-03-13T06:31:41.646Z,99.99
2023-03-13T06:32:14.028Z,99.99
2023-03-13T06:32:46.603Z,99.99
2023-03-13T06:33:19.009Z,99.99
2023-03-13T06:33:51.441Z,99.99
2023-03-13T06:34:23.893Z,99.99
2023-03-13T06:34:56.366Z,99.99
2023-03-13T06:35:28.911Z,99.99
2023-03-13T06:36:01.420Z,99.99
2023-03-13T06:36:33.910Z,99.99
2023-03-13T06:37:25.709Z,99.99
2023-03-13T06:37:58.182Z,99.99
2023-03-13T06:38:30.647Z,99.99
2023-03-13T06:39:03.106Z,99.99
2023-03-13T06:39:35.603Z,99.99
2023-03-13T06:40:08.105Z,99.99
2023-03-13T06:40:40.616Z,99.99
2023-03-13T06:41:13.133Z,99.99
2023-03-13T06:41:45.593Z,99.99
2023-03-13T06:42:18.048Z,99.99
2023-03-13T06:42:50.529Z,99.99
2023-03-13T06:43:23.007Z,99.99
2023-03-13T06:43:55.525Z,99.99
2023-03-13T06:44:28.018Z,99.99
2023-03-13T06:45:00.487Z,99.99
2023-03-13T06:45:32.979Z,99.99
2023-03-13T06:46:05.516Z,99.99
2023-03-13T06:46:37.985Z,99.99
2023-03-13T06:47:10.429Z,99.99
2023-03-13T06:47:42.913Z,99.99
2023-03-13T06:48:15.351Z,99.99
2023-03-13T06:48:47.832Z,99.99
2023-03-13T06:49:20.318Z,99.99
2023-03-13T06:49:52.818Z,99.99
2023-03-13T06:50:25.568Z,99.99
2023-03-13T06:50:58.104Z,99.99
2023-03-13T06:51:30.618Z,99.99
2023-03-13T06:52:03.118Z,99.99
2023-03-13T06:52:43.460Z,99.99
2023-03-13T06:53:08.017Z,99.99
2023-03-13T06:53:40.507Z,99.99
2023-03-13T06:54:12.964Z,99.99
2023-03-13T06:54:45.455Z,99.99
2023-03-13T06:55:17.952Z,99.99
2023-03-13T06:55:50.441Z,99.99
2023-03-13T06:56:22.946Z,99.99
2023-03-13T06:56:55.472Z,99.99
2023-03-13T06:57:28.007Z,99.99
2023-03-13T06:58:00.453Z,99.99
2023-03-13T06:58:33.163Z,99.99
2023-03-13T06:59:05.421Z,99.99